Nearby METAR Reports

 

LIBV - Gioia Del Colle, Italy
Distance from station: SSE 15km
Ultima actualizare: 21/09/2019 18:55
Senin
Senin
 Vânt dela NNE
Vântul: NNE 11 km/h
Temperatura: 18°C
Punct de rouă: 10°C
Umiditate: 60%
Barometru: 1022 hPa
Sumar: Senin
Visibility: greater than 10 km
2019/09/21 16:55 LIBV 211655Z 02006KT CAVOK 18/10 Q1022 RMK SCT SCT200 VIS MIN 9999 WIND THR32 03006KT WIND THR14 01006KT BLU
LIBD - Bari/Palese Macc, Italy
Distance from station: NNV 26km
Ultima actualizare: 21/09/2019 19:20
Senin
Senin
 Vânt dela varies
Vântul: varies 4 km/h
Temperatura: 19°C
Punct de rouă: 11°C
Umiditate: 60%
Barometru: 1022 hPa
Sumar: Senin
Visibility: greater than 10 km
2019/09/21 17:20 LIBD 211720Z VRB02KT CAVOK 19/11 Q1022
 
LIBH - Marina Di Ginosa, Italy
Distance from station: S 53km
Ultima actualizare: 21/09/2019 18:55
Senin
Senin
 Vânt dela S
Vântul: S 7 km/h
Temperatura: 22°C
Punct de rouă: 13°C
Umiditate: 57%
Barometru: 1020 hPa
Sumar: Senin
Visibility: greater than 10 km
2019/09/21 16:55 LIBH 211655Z 18004KT CAVOK 22/13 Q1020 RMK FEW FEW200 QUK 2 QUL 1 S VIS MAR 35 KM VIS MIN 9999
LIBG - Grottaglie(Civ/A, Italy
Distance from station: SE 61km
Ultima actualizare: 21/09/2019 18:50
Senin
Senin
 Vânt dela NNE
Vântul: NNE 11 km/h
Temperatura: 21°C
Punct de rouă: 14°C
Umiditate: 64%
Barometru: 1021 hPa
Sumar: Senin
Visibility: greater than 10 km
2019/09/21 16:50 LIBG 211650Z 03006KT CAVOK 21/14 Q1021
 
LIBR - Brindisi/Casale, Italy
Distance from station: ESE 96km
Ultima actualizare: 21/09/2019 19:20
Senin
Senin
 Vânt dela N
Vântul: N 9 km/h
Temperatura: 21°C
Punct de rouă: 12°C
Umiditate: 57%
Barometru: 1022 hPa
Sumar: Senin
Visibility: greater than 10 km
2019/09/21 17:20 LIBR 211720Z 36005KT CAVOK 21/12 Q1022
LIBA - Amendola (it-Afb, Italy
Distance from station: NV 118km
Ultima actualizare: 21/09/2019 18:55
Senin
Senin
 Vânt dela E
Vântul: E 11 km/h
Temperatura: 21°C
Punct de rouă: 13°C
Umiditate: 60%
Barometru: 1021 hPa
Sumar: Senin
Visibility: greater than 10 km
2019/09/21 16:55 LIBA 211655Z 09006KT CAVOK 21/13 Q1021 RMK BKN BKN200 VIS MIN 9999 WIND THR11 09007KT WIND THR29 /////KT BLU
 
LIBF - Foggia/Gino Lisa, Italy
Distance from station: VNV 126km
Ultima actualizare: 21/09/2019 17:50
NOT Current
Senin
Senin
 Vânt dela NNE
Vântul: NNE 11 km/h
Temperatura: 23°C
Punct de rouă: 11°C
Umiditate: 47%
Barometru: 1022 hPa
Sumar: Senin
Visibility: greater than 10 km
2019/09/21 15:50 LIBF 211550Z 02006KT CAVOK 23/11 Q1022
LIBN - Lecce (it-Afb), Italy
Distance from station: SE 132km
Ultima actualizare: 21/09/2019 18:55
Senin
Senin
 Vânt dela NNE
Vântul: NNE 9 km/h
Temperatura: 20°C
Punct de rouă: 12°C
Umiditate: 60%
Barometru: 1022 hPa
Sumar: Senin
Visibility: greater than 10 km
2019/09/21 16:55 LIBN 211655Z 02005KT CAVOK 20/12 Q1022 RMK SKC VIS MIN 9999 WIND THR14 02005KT WIND THR32 01005KT BLU